Time;durP1;ratioP1;P1;durP2;ratioP2;P2;SDS_P1;SDS_P2;PMS_P1;PMS_P2;Temp;Humidity;BMP_temperature;BMP_pressure;BME280_temperature;BME280_humidity;BME280_pressure;Samples;Min_cycle;Max_cycle;Signal;HPM_P1;HPM_P2
2024/02/14 00:00:37;;;;;;;21.98;14.90;;;;;;;6.77;100.00;101291.13;5052884;28;20094;-81
2024/02/14 00:03:03;;;;;;;22.60;15.18;;;;;;;6.79;100.00;101294.53;5052839;28;20029;-79
2024/02/14 00:05:28;;;;;;;22.23;15.13;;;;;;;6.77;100.00;101288.47;5050932;28;20036;-80
2024/02/14 00:07:54;;;;;;;20.67;14.65;;;;;;;6.79;100.00;101291.88;5051171;28;20084;-78
2024/02/14 00:10:19;;;;;;;28.88;16.67;;;;;;;6.82;100.00;101296.09;5052626;28;20072;-79
2024/02/14 00:12:46;;;;;;;25.23;16.58;;;;;;;6.84;100.00;101292.41;5052266;28;20021;-78
2024/02/14 00:15:11;;;;;;;24.95;16.10;;;;;;;6.85;100.00;101294.13;5050946;28;20036;-78
2024/02/14 00:17:37;;;;;;;28.85;17.08;;;;;;;6.86;100.00;101289.66;5052045;28;20029;-78
2024/02/14 00:20:03;;;;;;;26.85;17.88;;;;;;;6.89;100.00;101292.09;5052042;28;20029;-77
2024/02/14 00:22:29;;;;;;;27.20;17.73;;;;;;;6.92;100.00;101291.06;5052240;28;20037;-78
2024/02/14 00:24:54;;;;;;;28.58;17.42;;;;;;;6.94;100.00;101289.13;5052503;28;20097;-77
2024/02/14 00:27:20;;;;;;;27.55;17.58;;;;;;;6.98;100.00;101283.53;5050992;28;20447;-78
2024/02/14 00:29:46;;;;;;;25.67;17.90;;;;;;;7.00;100.00;101286.06;5051635;28;20523;-77
2024/02/14 00:32:12;;;;;;;27.00;17.48;;;;;;;7.01;100.00;101295.72;5050937;28;20033;-79
2024/02/14 00:34:38;;;;;;;28.35;18.20;;;;;;;7.02;100.00;101290.31;5052265;28;20466;-81
2024/02/14 00:37:03;;;;;;;25.65;18.20;;;;;;;7.02;100.00;101277.09;5052495;28;20041;-80
2024/02/14 00:39:29;;;;;;;30.27;17.58;;;;;;;7.05;100.00;101286.63;5052740;28;20036;-79
2024/02/14 00:41:55;;;;;;;31.35;17.73;;;;;;;7.05;100.00;101281.31;5052165;28;20467;-78
2024/02/14 00:44:20;;;;;;;27.27;17.45;;;;;;;7.07;100.00;101288.19;5050902;28;20036;-78
2024/02/14 00:46:46;;;;;;;25.95;18.38;;;;;;;7.10;100.00;101288.94;5052191;28;20033;-79
2024/02/14 00:49:11;;;;;;;37.53;19.60;;;;;;;7.13;100.00;101301.97;5051063;28;20333;-79
2024/02/14 00:51:40;;;;;;;30.02;18.88;;;;;;;7.19;100.00;101293.59;5051541;28;20074;-78
2024/02/14 00:54:08;;;;;;;34.40;19.58;;;;;;;7.20;100.00;101290.84;5052896;28;20036;-78
2024/02/14 00:56:34;;;;;;;30.23;19.40;;;;;;;7.17;100.00;101291.06;5052484;28;20036;-79
2024/02/14 00:59:00;;;;;;;30.52;19.13;;;;;;;7.21;100.00;101292.56;5052048;28;20083;-80
2024/02/14 01:01:26;;;;;;;26.40;17.85;;;;;;;7.22;100.00;101293.38;5050953;28;20041;-81
2024/02/14 01:03:52;;;;;;;27.95;18.58;;;;;;;7.26;100.00;101299.34;5051754;28;20083;-80
2024/02/14 01:06:18;;;;;;;28.27;19.08;;;;;;;7.26;100.00;101294.03;5050526;28;20550;-81
2024/02/14 01:08:44;;;;;;;29.70;19.02;;;;;;;7.30;100.00;101293.72;5050465;28;20029;-81
2024/02/14 01:11:09;;;;;;;27.08;18.42;;;;;;;7.31;100.00;101298.03;5051844;28;20082;-81
2024/02/14 01:13:35;;;;;;;29.83;18.33;;;;;;;7.36;100.00;101298.56;5051914;28;20033;-79
2024/02/14 01:16:00;;;;;;;26.20;17.52;;;;;;;7.38;100.00;101294.00;5051621;28;20032;-80
2024/02/14 01:18:25;;;;;;;30.20;17.55;;;;;;;7.45;100.00;101306.81;5054248;28;20025;-82
2024/02/14 01:20:51;;;;;;;29.95;16.25;;;;;;;7.48;100.00;101301.31;5055647;28;20467;-80
2024/02/14 01:23:16;;;;;;;31.88;16.60;;;;;;;7.51;100.00;101309.91;5055616;28;20467;-81
2024/02/14 01:25:42;;;;;;;26.38;16.00;;;;;;;7.54;100.00;101311.50;5055776;28;20044;-79
2024/02/14 01:28:08;;;;;;;23.83;15.20;;;;;;;7.58;100.00;101297.91;5054197;28;20487;-82
2024/02/14 01:30:35;;;;;;;25.02;15.95;;;;;;;7.61;100.00;101312.72;5055008;28;20041;-82
2024/02/14 01:33:01;;;;;;;25.23;15.82;;;;;;;7.64;100.00;101312.50;5054701;28;20083;-80
2024/02/14 01:35:27;;;;;;;22.38;14.45;;;;;;;7.69;100.00;101315.69;5055395;28;20033;-79
2024/02/14 01:37:54;;;;;;;25.23;14.60;;;;;;;7.69;100.00;101305.09;5054131;28;20033;-79
2024/02/14 01:40:19;;;;;;;31.25;14.57;;;;;;;7.68;100.00;101313.16;5055269;28;20063;-78
2024/02/14 01:42:45;;;;;;;20.60;13.65;;;;;;;7.68;100.00;101308.69;5054382;28;20040;-79
2024/02/14 01:45:10;;;;;;;24.13;13.70;;;;;;;7.69;100.00;101321.00;5055354;28;20040;-80
2024/02/14 01:47:35;;;;;;;25.10;14.57;;;;;;;7.70;100.00;101308.59;5055267;28;20503;-80
2024/02/14 01:50:01;;;;;;;25.20;13.95;;;;;;;7.69;100.00;101321.00;5053999;28;20561;-79
2024/02/14 01:52:27;;;;;;;20.55;13.52;;;;;;;7.70;100.00;101311.22;5055129;28;20029;-79
2024/02/14 01:54:54;;;;;;;27.20;13.93;;;;;;;7.75;100.00;101322.38;5054980;28;20041;-80
2024/02/14 01:57:21;;;;;;;24.30;13.15;;;;;;;7.72;100.00;101319.94;5054922;28;20033;-79
2024/02/14 01:59:48;;;;;;;19.55;12.90;;;;;;;7.73;100.00;101322.47;5054114;28;20029;-79
2024/02/14 02:02:14;;;;;;;20.52;12.70;;;;;;;7.76;100.00;101326.69;5055211;28;20033;-77
2024/02/14 02:04:39;;;;;;;16.92;11.82;;;;;;;7.79;100.00;101326.47;5036824;28;20118;-77
2024/02/14 02:07:04;;;;;;;19.75;11.10;;;;;;;7.83;100.00;101317.34;5054909;28;20029;-78
2024/02/14 02:09:31;;;;;;;22.95;11.63;;;;;;;7.86;100.00;101334.84;5053292;28;20152;-78
2024/02/14 02:11:56;;;;;;;19.88;11.88;;;;;;;7.90;100.00;101320.44;5054533;28;20116;-80
2024/02/14 02:14:22;;;;;;;19.00;11.60;;;;;;;7.93;100.00;101338.75;5053260;28;20080;-78
2024/02/14 02:16:49;;;;;;;23.67;13.15;;;;;;;7.99;100.00;101327.72;5054994;28;20044;-77
2024/02/14 02:19:15;;;;;;;30.00;13.75;;;;;;;8.02;100.00;101329.31;5054133;28;20538;-78
2024/02/14 02:21:42;;;;;;;27.08;13.20;;;;;;;8.07;100.00;101335.09;5036617;28;20037;-78
2024/02/14 02:24:08;;;;;;;29.17;13.50;;;;;;;8.10;100.00;101337.53;5054466;28;20033;-81
2024/02/14 02:26:33;;;;;;;29.15;13.50;;;;;;;8.10;100.00;101346.31;5054057;28;20029;-80
2024/02/14 02:28:59;;;;;;;35.83;13.77;;;;;;;8.17;100.00;101332.66;5053529;28;20094;-80
2024/02/14 02:31:26;;;;;;;27.58;13.27;;;;;;;8.20;100.00;101343.03;5054184;28;20399;-79
2024/02/14 02:33:51;;;;;;;29.23;12.25;;;;;;;8.20;100.00;101338.56;5053002;28;20079;-79
2024/02/14 02:36:17;;;;;;;38.10;13.00;;;;;;;8.23;100.00;101348.09;5052484;28;20489;-81
2024/02/14 02:38:42;;;;;;;28.95;11.45;;;;;;;8.26;100.00;101345.22;5054258;28;20394;-78
2024/02/14 02:41:08;;;;;;;28.90;11.15;;;;;;;8.25;100.00;101340.88;5053648;28;20029;-80
2024/02/14 02:43:34;;;;;;;30.20;11.07;;;;;;;8.26;100.00;101361.97;5054433;28;20041;-81
2024/02/14 02:45:59;;;;;;;28.77;11.07;;;;;;;8.26;100.00;101347.88;5053836;28;20033;-79
2024/02/14 02:48:25;;;;;;;27.13;11.18;;;;;;;8.27;100.00;101352.19;5052494;28;20033;-78
2024/02/14 02:50:51;;;;;;;35.72;11.05;;;;;;;8.30;100.00;101354.66;5052575;28;20029;-78
2024/02/14 02:53:17;;;;;;;35.80;10.75;;;;;;;8.32;100.00;101351.91;5053582;28;20057;-79
2024/02/14 02:55:43;;;;;;;35.90;10.25;;;;;;;8.32;100.00;101357.19;5053369;28;20067;-81
2024/02/14 02:58:09;;;;;;;26.65;9.52;;;;;;;8.30;100.00;101357.31;5052533;28;20458;-78
2024/02/14 03:00:35;;;;;;;31.48;9.65;;;;;;;8.29;100.00;101356.44;5053595;28;20084;-81
2024/02/14 03:03:02;;;;;;;41.38;9.63;;;;;;;8.32;100.00;101354.53;5051856;28;20029;-79
2024/02/14 03:05:28;;;;;;;33.17;10.13;;;;;;;8.30;100.00;101346.72;5053366;28;20116;-80
2024/02/14 03:07:57;;;;;;;29.42;9.88;;;;;;;8.31;100.00;101356.34;5053618;28;20080;-80
2024/02/14 03:10:22;;;;;;;37.92;9.18;;;;;;;8.29;100.00;101353.78;5051911;28;20033;-79
2024/02/14 03:12:48;;;;;;;39.78;9.20;;;;;;;8.29;100.00;101356.44;5053790;28;20509;-79
2024/02/14 03:15:14;;;;;;;30.27;8.88;;;;;;;8.26;100.00;101367.28;5053789;28;20037;-79
2024/02/14 03:17:40;;;;;;;32.42;8.18;;;;;;;8.26;100.00;101348.72;5051842;28;20508;-79
2024/02/14 03:20:14;;;;;;;36.55;8.88;;;;;;;8.30;100.00;101365.25;5053196;28;20059;-79
2024/02/14 03:22:47;;;;;;;43.83;9.93;;;;;;;8.28;100.00;101369.81;5053196;28;20094;-79
2024/02/14 03:25:13;;;;;;;29.15;10.23;;;;;;;8.32;100.00;101378.41;5052131;28;20036;-79
2024/02/14 03:27:39;;;;;;;34.70;8.52;;;;;;;8.30;100.00;101383.81;5053391;28;20127;-79
2024/02/14 03:30:06;;;;;;;36.97;8.43;;;;;;;8.29;100.00;101367.03;5052834;28;20359;-79
2024/02/14 03:32:32;;;;;;;38.88;9.13;;;;;;;8.29;100.00;101361.75;5050854;28;20127;-78
2024/02/14 03:34:58;;;;;;;40.65;8.90;;;;;;;8.29;100.00;101369.69;5051510;28;20071;-78
2024/02/14 03:37:23;;;;;;;36.55;8.75;;;;;;;8.32;100.00;101368.63;5053055;28;20061;-78
2024/02/14 03:39:49;;;;;;;33.97;8.27;;;;;;;8.33;100.00;101378.31;5052006;28;20486;-79
2024/02/14 03:42:15;;;;;;;37.72;8.50;;;;;;;8.32;100.00;101368.63;5052797;28;20033;-77
2024/02/14 03:44:40;;;;;;;36.22;7.72;;;;;;;8.36;100.00;101382.50;5052998;28;20067;-78
2024/02/14 03:47:06;;;;;;;32.80;7.55;;;;;;;8.37;100.00;101374.44;5052981;28;20391;-79
2024/02/14 03:49:31;;;;;;;43.72;8.85;;;;;;;8.38;100.00;101383.25;5052929;28;20071;-77
2024/02/14 03:51:57;;;;;;;45.20;8.63;;;;;;;8.36;100.00;101379.84;5051492;28;20124;-77
2024/02/14 03:54:23;;;;;;;49.00;9.45;;;;;;;8.38;100.00;101384.09;5052689;28;20048;-77
2024/02/14 03:56:48;;;;;;;32.63;8.32;;;;;;;8.39;100.00;101398.19;5052823;28;20033;-79
2024/02/14 03:59:14;;;;;;;34.63;8.45;;;;;;;8.38;100.00;101389.41;5052117;28;20492;-77
2024/02/14 04:01:45;;;;;;;27.65;8.38;;;;;;;8.40;100.00;101387.47;5052413;28;20051;-78
2024/02/14 04:04:10;;;;;;;36.22;8.50;;;;;;;8.41;100.00;101397.13;5052502;28;20037;-78
2024/02/14 04:06:35;;;;;;;36.33;9.38;;;;;;;8.42;100.00;101395.31;5050954;28;20041;-77
2024/02/14 04:09:01;;;;;;;36.08;10.38;;;;;;;8.41;100.00;101391.81;5052273;28;20032;-78
2024/02/14 04:11:26;;;;;;;40.60;9.02;;;;;;;8.40;100.00;101397.25;5051288;28;20036;-78
2024/02/14 04:13:52;;;;;;;44.42;8.93;;;;;;;8.45;100.00;101395.16;5052635;28;20033;-80
2024/02/14 04:16:21;;;;;;;38.60;8.77;;;;;;;8.45;100.00;101395.16;5052013;28;20056;-78
2024/02/14 04:18:47;;;;;;;38.83;8.82;;;;;;;8.46;100.00;101407.44;5052050;28;20402;-77
2024/02/14 04:21:12;;;;;;;31.20;8.88;;;;;;;8.46;100.00;101412.75;5050759;28;20035;-78
2024/02/14 04:23:37;;;;;;;40.65;8.63;;;;;;;8.48;100.00;101394.94;5051706;28;20037;-79
2024/02/14 04:26:03;;;;;;;36.00;9.13;;;;;;;8.47;100.00;101402.03;5052088;28;20127;-79
2024/02/14 04:28:28;;;;;;;44.80;9.63;;;;;;;8.49;100.00;101416.97;5052160;28;20043;-75
2024/02/14 04:30:55;;;;;;;38.08;8.68;;;;;;;8.51;100.00;101423.00;5052054;28;20136;-76
2024/02/14 04:33:21;;;;;;;38.10;8.95;;;;;;;8.52;100.00;101416.75;5051621;28;20033;-77
2024/02/14 04:35:46;;;;;;;42.88;9.27;;;;;;;8.54;100.00;101406.88;5051947;28;20033;-77
2024/02/14 04:38:12;;;;;;;38.53;9.32;;;;;;;8.54;100.00;101414.81;5051669;28;20037;-77
2024/02/14 04:40:38;;;;;;;36.47;10.35;;;;;;;8.53;100.00;101415.81;5051724;28;20032;-77
2024/02/14 04:43:04;;;;;;;40.83;10.65;;;;;;;8.51;100.00;101420.34;5050771;28;20037;-76
2024/02/14 04:45:29;;;;;;;48.85;11.20;;;;;;;8.52;100.00;101419.41;5052138;28;20115;-76
2024/02/14 04:47:55;;;;;;;42.00;9.45;;;;;;;8.55;100.00;101435.94;5052556;28;20399;-76
2024/02/14 04:50:20;;;;;;;37.95;9.45;;;;;;;8.55;100.00;101427.97;5051897;28;20037;-77
2024/02/14 04:52:45;;;;;;;42.28;10.32;;;;;;;8.57;100.00;101425.22;5050174;28;20033;-76
2024/02/14 04:55:11;;;;;;;39.08;9.90;;;;;;;8.55;100.00;101435.09;5052035;28;20037;-77
2024/02/14 04:57:36;;;;;;;28.55;8.88;;;;;;;8.55;100.00;101432.44;5050592;28;20090;-79
2024/02/14 05:00:04;;;;;;;30.27;8.48;;;;;;;8.56;100.00;101431.50;5051895;28;20044;-77
2024/02/14 05:02:30;;;;;;;41.63;8.57;;;;;;;8.58;100.00;101441.06;5051923;28;20118;-78
2024/02/14 05:04:55;;;;;;;34.28;9.32;;;;;;;8.58;100.00;101433.09;5052439;28;20060;-77
2024/02/14 05:07:20;;;;;;;26.23;7.35;;;;;;;8.61;100.00;101430.22;5051800;28;20340;-77
2024/02/14 05:09:48;;;;;;;22.17;7.95;;;;;;;8.63;100.00;101441.53;5052396;28;20438;-77
2024/02/14 05:12:13;;;;;;;26.48;8.20;;;;;;;8.67;100.00;101428.06;5052507;28;20068;-78
2024/02/14 05:14:40;;;;;;;31.23;8.27;;;;;;;8.67;100.00;101433.38;5052381;28;20459;-77
2024/02/14 05:17:05;;;;;;;28.40;7.95;;;;;;;8.67;100.00;101428.06;5051012;28;20083;-76
2024/02/14 05:19:30;;;;;;;31.27;7.38;;;;;;;8.67;100.00;101442.16;5052243;28;20025;-76
2024/02/14 05:21:56;;;;;;;27.58;7.38;;;;;;;8.75;100.00;101436.31;5052661;28;20044;-78
2024/02/14 05:24:21;;;;;;;29.75;7.28;;;;;;;8.78;100.00;101439.56;5052084;28;20037;-77
2024/02/14 05:26:46;;;;;;;31.80;7.70;;;;;;;8.78;100.00;101450.19;5051995;28;20036;-79
2024/02/14 05:29:12;;;;;;;23.90;6.80;;;;;;;8.81;100.00;101444.66;5051727;28;20055;-76
2024/02/14 05:31:45;;;;;;;28.33;7.40;;;;;;;8.85;100.00;101442.63;5051922;28;20041;-77
2024/02/14 05:34:11;;;;;;;28.63;6.80;;;;;;;8.88;100.00;101449.50;5051265;28;20056;-78
2024/02/14 05:36:36;;;;;;;32.85;6.90;;;;;;;8.88;100.00;101446.84;5051586;28;20375;-77
2024/02/14 05:39:02;;;;;;;25.95;7.43;;;;;;;8.88;100.00;101449.50;5051896;28;20455;-77
2024/02/14 05:41:28;;;;;;;26.77;7.03;;;;;;;8.88;100.00;101453.00;5051239;28;20044;-77
2024/02/14 05:43:53;;;;;;;40.00;7.68;;;;;;;8.90;100.00;101453.75;5050170;28;20025;-76
2024/02/14 05:46:20;;;;;;;29.45;8.90;;;;;;;8.91;100.00;101447.50;5051331;28;20033;-75
2024/02/14 05:48:48;;;;;;;25.98;8.48;;;;;;;8.92;100.00;101448.34;5051221;28;20029;-76
2024/02/14 05:51:13;;;;;;;25.10;8.15;;;;;;;8.92;100.00;101459.78;5051202;28;20051;-77
2024/02/14 05:53:39;;;;;;;28.38;8.15;;;;;;;8.94;100.00;101457.00;5050757;28;20029;-76
2024/02/14 05:56:04;;;;;;;36.83;7.95;;;;;;;8.95;100.00;101456.06;5051008;28;20558;-77
2024/02/14 05:58:29;;;;;;;34.53;8.50;;;;;;;8.95;100.00;101440.97;5050244;28;20120;-78
2024/02/14 06:00:55;;;;;;;34.40;8.52;;;;;;;9.01;100.00;101466.22;5050422;28;20129;-78
2024/02/14 06:03:21;;;;;;;25.25;8.23;;;;;;;9.00;100.00;101456.56;5051819;28;20442;-80
2024/02/14 06:05:46;;;;;;;31.70;8.23;;;;;;;9.02;100.00;101462.63;5054531;28;20040;-77
2024/02/14 06:08:12;;;;;;;34.45;8.65;;;;;;;9.06;100.00;101466.75;5054519;28;20374;-77
2024/02/14 06:10:38;;;;;;;24.23;8.07;;;;;;;9.08;100.00;101463.97;5054818;28;20059;-76
2024/02/14 06:13:04;;;;;;;31.25;7.95;;;;;;;9.08;100.00;101467.47;5054134;28;20033;-76
2024/02/14 06:15:29;;;;;;;26.73;7.45;;;;;;;9.12;100.00;101460.97;5053156;28;20108;-77
2024/02/14 06:17:55;;;;;;;26.70;7.82;;;;;;;9.11;100.00;101467.25;5054612;28;20123;-77
2024/02/14 06:20:20;;;;;;;23.05;8.52;;;;;;;9.13;100.00;101477.75;5054417;28;20028;-76
2024/02/14 06:22:46;;;;;;;36.45;8.73;;;;;;;9.17;100.00;101469.44;5054155;28;20041;-78
2024/02/14 06:25:11;;;;;;;31.65;8.32;;;;;;;9.18;100.00;101460.50;5054276;28;20037;-76
2024/02/14 06:27:37;;;;;;;38.63;10.25;;;;;;;9.18;100.00;101451.69;5036387;28;20359;-76
2024/02/14 06:30:03;;;;;;;28.10;10.70;;;;;;;9.16;100.00;101473.03;5052514;28;20455;-76
2024/02/14 06:32:28;;;;;;;33.03;11.70;;;;;;;9.17;100.00;101472.09;5054110;28;20094;-76
2024/02/14 06:34:54;;;;;;;34.97;11.68;;;;;;;9.22;100.00;101469.09;5054178;28;20476;-78
2024/02/14 06:37:20;;;;;;;31.27;11.50;;;;;;;9.24;100.00;101476.94;5054131;28;20513;-76
2024/02/14 06:39:45;;;;;;;35.22;10.23;;;;;;;9.27;100.00;101476.69;5053155;28;20111;-76
2024/02/14 06:42:10;;;;;;;28.08;10.07;;;;;;;9.27;100.00;101466.09;5054178;28;20029;-76
2024/02/14 06:44:36;;;;;;;33.38;11.32;;;;;;;9.26;100.00;101467.06;5036339;28;20029;-76
2024/02/14 06:47:01;;;;;;;37.97;11.43;;;;;;;9.25;100.00;101479.47;5053778;28;20121;-76
2024/02/14 06:49:27;;;;;;;33.38;10.95;;;;;;;9.26;100.00;101481.19;5053614;28;20110;-77
2024/02/14 06:51:52;;;;;;;26.65;10.75;;;;;;;9.28;100.00;101483.72;5053642;28;20045;-76
2024/02/14 06:54:19;;;;;;;29.02;10.88;;;;;;;9.27;100.00;101482.88;5053423;28;20569;-77
2024/02/14 06:56:45;;;;;;;28.80;10.55;;;;;;;9.29;100.00;101477.44;5053984;28;20040;-76
2024/02/14 06:59:10;;;;;;;35.40;11.00;;;;;;;9.32;100.00;101478.06;5052611;28;20454;-77
2024/02/14 07:01:35;;;;;;;35.00;11.80;;;;;;;9.38;100.00;101490.03;5052214;28;20029;-77
2024/02/14 07:04:01;;;;;;;39.80;12.23;;;;;;;9.36;100.00;101494.63;5053614;28;20029;-77
2024/02/14 07:06:27;;;;;;;34.20;12.40;;;;;;;9.38;100.00;101474.09;5053196;28;20044;-76
2024/02/14 07:08:53;;;;;;;29.52;11.20;;;;;;;9.40;100.00;101492.56;5053917;28;20112;-76
2024/02/14 07:11:18;;;;;;;31.10;10.55;;;;;;;9.38;100.00;101490.03;5053417;28;20121;-76
2024/02/14 07:13:44;;;;;;;26.90;9.27;;;;;;;9.38;100.00;101484.72;5053340;28;20033;-76
2024/02/14 07:16:09;;;;;;;34.03;11.45;;;;;;;9.39;100.00;101494.41;5052467;28;20131;-77
2024/02/14 07:18:35;;;;;;;29.52;10.45;;;;;;;9.41;100.00;101497.78;5053312;28;20036;-79
2024/02/14 07:21:01;;;;;;;31.35;10.68;;;;;;;9.43;100.00;101506.47;5053519;28;20044;-79
2024/02/14 07:23:27;;;;;;;22.63;9.20;;;;;;;9.45;100.00;101496.59;5051514;28;20112;-78
2024/02/14 07:25:53;;;;;;;24.80;10.82;;;;;;;9.43;100.00;101501.16;5053178;28;20112;-79
2024/02/14 07:28:18;;;;;;;19.13;10.55;;;;;;;9.49;100.00;101507.81;5051626;28;20463;-77
2024/02/14 07:30:44;;;;;;;27.55;10.98;;;;;;;9.52;100.00;101508.44;5052786;28;20079;-77
2024/02/14 07:33:10;;;;;;;24.95;10.52;;;;;;;9.51;100.00;101506.75;5053097;28;20091;-78
2024/02/14 07:35:38;;;;;;;22.10;9.43;;;;;;;9.49;100.00;101508.69;5052642;28;20044;-81
2024/02/14 07:38:04;;;;;;;21.20;8.82;;;;;;;9.51;100.00;101513.88;5052732;28;20033;-77
2024/02/14 07:40:30;;;;;;;24.48;9.15;;;;;;;9.53;100.00;101512.78;5052838;28;20471;-77
2024/02/14 07:42:59;;;;;;;26.50;8.75;;;;;;;9.56;100.00;101513.53;5053377;28;20029;-77
2024/02/14 07:45:25;;;;;;;20.83;8.93;;;;;;;9.54;100.00;101513.66;5052991;28;20029;-75
2024/02/14 07:47:51;;;;;;;23.40;9.15;;;;;;;9.57;100.00;101520.50;5051521;28;20074;-77
2024/02/14 07:50:16;;;;;;;21.58;8.25;;;;;;;9.57;100.00;101529.34;5052922;28;20095;-78
2024/02/14 07:52:51;;;;;;;19.00;7.78;;;;;;;9.57;100.00;101528.47;5052786;28;20029;-77
2024/02/14 07:55:16;;;;;;;16.13;7.25;;;;;;;9.61;100.00;101506.03;5052498;28;20040;-77
2024/02/14 07:57:42;;;;;;;20.35;7.38;;;;;;;9.60;100.00;101512.31;5052304;28;20084;-78
2024/02/14 08:00:08;;;;;;;17.00;7.18;;;;;;;9.59;100.00;101521.25;5053002;28;20123;-80
2024/02/14 08:02:34;;;;;;;11.20;5.47;;;;;;;9.60;100.00;101525.59;5052439;28;20032;-79
2024/02/14 08:05:00;;;;;;;14.10;6.22;;;;;;;9.58;100.00;101531.03;5050746;28;20082;-80
2024/02/14 08:07:26;;;;;;;17.35;6.25;;;;;;;9.55;100.00;101519.78;5052473;28;20108;-79
2024/02/14 08:09:51;;;;;;;15.77;6.55;;;;;;;9.53;100.00;101525.22;5052466;28;20029;-81
2024/02/14 08:12:16;;;;;;;14.88;6.85;;;;;;;9.52;100.00;101524.38;5052357;28;20029;-79
2024/02/14 08:14:42;;;;;;;16.75;7.63;;;;;;;9.50;100.00;101528.09;5052658;28;20037;-78
2024/02/14 08:17:07;;;;;;;12.45;8.52;;;;;;;9.46;100.00;101535.44;5052049;28;20414;-78
2024/02/14 08:19:32;;;;;;;13.15;8.48;;;;;;;9.41;100.00;101534.97;5051801;28;20041;-78
2024/02/14 08:21:59;;;;;;;15.18;9.73;;;;;;;9.36;100.00;101537.13;5051854;28;20472;-79
2024/02/14 08:24:26;;;;;;;14.60;9.20;;;;;;;9.31;100.00;101542.75;5050794;28;20044;-80
2024/02/14 08:26:51;;;;;;;13.57;9.15;;;;;;;9.26;100.00;101552.03;5051762;28;20032;-80
2024/02/14 08:29:18;;;;;;;13.38;8.65;;;;;;;9.22;100.00;101551.41;5051814;28;20339;-79
2024/02/14 08:31:43;;;;;;;14.10;10.30;;;;;;;9.19;100.00;101548.97;5051953;28;20061;-84
2024/02/14 08:34:09;;;;;;;15.25;11.23;;;;;;;9.15;100.00;101552.81;5051901;28;20048;-81
2024/02/14 08:36:40;;;;;;;18.33;12.02;;;;;;;9.13;100.00;101558.22;5052093;28;20068;-82
2024/02/14 08:39:07;;;;;;;16.73;12.45;;;;;;;9.12;100.00;101550.38;5052131;28;20056;-81
2024/02/14 08:41:32;;;;;;;22.38;12.57;;;;;;;9.09;100.00;101553.25;5051940;28;20474;-83
2024/02/14 08:43:57;;;;;;;17.85;12.10;;;;;;;9.10;100.00;101554.97;5052739;28;20033;-81
2024/02/14 08:46:23;;;;;;;18.38;12.57;;;;;;;9.08;100.00;101557.72;5052230;28;20037;-80
2024/02/14 08:48:49;;;;;;;16.30;11.80;;;;;;;9.08;100.00;101560.38;5051517;28;20509;-82
2024/02/14 08:51:15;;;;;;;16.15;12.93;;;;;;;9.08;100.00;101560.38;5051823;28;20524;-80
2024/02/14 08:53:42;;;;;;;17.85;12.77;;;;;;;9.12;100.00;101568.97;5050498;28;20037;-79
2024/02/14 08:56:08;;;;;;;20.20;13.50;;;;;;;9.14;100.00;101575.84;5052060;28;20098;-80
2024/02/14 08:58:35;;;;;;;21.05;12.95;;;;;;;9.16;100.00;101576.59;5051602;28;20445;-81
2024/02/14 09:01:00;;;;;;;17.98;13.13;;;;;;;9.16;100.00;101567.78;5050424;28;20119;-81
2024/02/14 09:03:25;;;;;;;21.23;13.55;;;;;;;9.16;100.00;101576.59;5051206;28;20108;-80
2024/02/14 09:05:52;;;;;;;17.23;13.88;;;;;;;9.16;100.00;101581.06;5051905;28;20035;-79
2024/02/14 09:08:18;;;;;;;21.55;14.20;;;;;;;9.16;100.00;101571.28;5051658;28;20116;-79
2024/02/14 09:10:45;;;;;;;20.75;15.18;;;;;;;9.17;100.00;101572.97;5051852;28;20060;-78
2024/02/14 09:13:11;;;;;;;19.00;13.68;;;;;;;9.17;100.00;101578.28;5051125;28;20029;-80
2024/02/14 09:15:36;;;;;;;15.68;13.07;;;;;;;9.19;100.00;101575.53;5051731;28;20455;-80
2024/02/14 09:18:03;;;;;;;15.88;12.65;;;;;;;9.20;100.00;101577.22;5051247;28;20061;-80
2024/02/14 09:20:29;;;;;;;20.42;12.88;;;;;;;9.21;100.00;101573.63;5049933;28;20127;-81
2024/02/14 09:22:55;;;;;;;23.05;13.68;;;;;;;9.21;100.00;101572.75;5052057;28;20354;-80
2024/02/14 09:25:23;;;;;;;21.10;13.43;;;;;;;9.23;100.00;101582.31;5051179;28;20124;-80
2024/02/14 09:27:48;;;;;;;17.95;13.20;;;;;;;9.25;100.00;101595.47;5050585;28;20041;-79
2024/02/14 09:30:14;;;;;;;19.02;12.80;;;;;;;9.26;100.00;101589.22;5051119;28;20052;-78
2024/02/14 09:32:39;;;;;;;19.00;11.90;;;;;;;9.26;100.00;101586.56;5051344;28;20471;-79
2024/02/14 09:35:06;;;;;;;15.80;11.25;;;;;;;9.28;100.00;101581.97;5051535;28;20036;-79
2024/02/14 09:37:32;;;;;;;14.38;10.80;;;;;;;9.27;100.00;101586.44;5051203;28;20044;-79
2024/02/14 09:39:58;;;;;;;13.95;10.88;;;;;;;9.24;100.00;101597.28;5054575;28;20359;-79
2024/02/14 09:42:35;;;;;;;12.95;9.98;;;;;;;9.26;100.00;101594.53;5054536;28;20037;-82
2024/02/14 09:45:00;;;;;;;13.60;10.50;;;;;;;9.29;100.00;101581.84;5056262;28;20028;-78
2024/02/14 09:47:32;;;;;;;12.55;9.82;;;;;;;9.29;100.00;101581.03;5054123;28;20386;-78
2024/02/14 09:49:59;;;;;;;14.05;10.73;;;;;;;9.32;100.00;101583.44;5055969;28;20363;-78
2024/02/14 09:52:24;;;;;;;15.35;10.32;;;;;;;9.34;100.00;101585.03;5037969;28;20143;-79
2024/02/14 09:54:52;;;;;;;16.33;11.70;;;;;;;9.38;100.00;101590.13;5055367;28;20055;-77
2024/02/14 09:57:18;;;;;;;14.43;10.88;;;;;;;9.36;100.00;101590.25;5054907;28;20533;-80
2024/02/14 09:59:45;;;;;;;15.98;11.20;;;;;;;9.37;100.00;101588.41;5053703;28;20153;-78
2024/02/14 10:02:10;;;;;;;13.98;10.65;;;;;;;9.35;100.00;101596.50;5054613;28;20041;-76
2024/02/14 10:04:37;;;;;;;13.10;9.73;;;;;;;9.35;100.00;101593.84;5054941;28;20098;-78
2024/02/14 10:07:04;;;;;;;11.50;9.77;;;;;;;9.38;100.00;101595.44;5053917;28;20505;-77
2024/02/14 10:09:30;;;;;;;10.93;9.05;;;;;;;9.39;100.00;101595.31;5054658;28;20052;-79
2024/02/14 10:11:57;;;;;;;12.75;9.05;;;;;;;9.45;100.00;101592.22;5053212;28;20439;-78
2024/02/14 10:14:23;;;;;;;8.77;7.80;;;;;;;9.44;100.00;101606.44;5053465;28;20032;-77
2024/02/14 10:16:48;;;;;;;10.95;8.00;;;;;;;9.45;100.00;101610.81;5055016;28;20036;-77
2024/02/14 10:19:18;;;;;;;8.88;7.38;;;;;;;9.45;100.00;101601.97;5054836;28;20197;-78
2024/02/14 10:21:43;;;;;;;8.98;7.70;;;;;;;9.45;100.00;101594.88;5055132;28;20115;-79
2024/02/14 10:24:10;;;;;;;8.95;7.22;;;;;;;9.49;100.00;101596.34;5055647;28;20057;-79
2024/02/14 10:26:37;;;;;;;9.70;6.75;;;;;;;9.52;100.00;101598.78;5053756;28;20052;-81
2024/02/14 10:29:02;;;;;;;8.45;7.13;;;;;;;9.49;100.00;101599.00;5054986;28;20468;-80
2024/02/14 10:31:28;;;;;;;9.18;6.85;;;;;;;9.51;100.00;101594.41;5053671;28;20056;-78
2024/02/14 10:33:56;;;;;;;9.60;7.15;;;;;;;9.52;100.00;101589.94;5055014;28;20047;-78
2024/02/14 10:36:22;;;;;;;8.18;6.65;;;;;;;9.51;100.00;101594.41;5055586;28;20029;-77
2024/02/14 10:38:50;;;;;;;9.75;6.90;;;;;;;9.50;100.00;101599.84;5054469;28;20094;-77
2024/02/14 10:41:17;;;;;;;8.05;5.93;;;;;;;9.48;100.00;101594.63;5054628;28;20029;-77
2024/02/14 10:43:44;;;;;;;7.93;5.95;;;;;;;9.47;100.00;101594.75;5054470;28;20056;-78
2024/02/14 10:46:20;;;;;;;8.38;6.32;;;;;;;9.49;100.00;101596.34;5053158;28;20056;-78
2024/02/14 10:48:45;;;;;;;7.65;5.95;;;;;;;9.45;100.00;101584.25;5054951;28;20033;-78
2024/02/14 10:51:15;;;;;;;8.60;6.05;;;;;;;9.45;100.00;101589.56;5053639;28;20417;-79
2024/02/14 10:53:45;;;;;;;8.65;6.50;;;;;;;9.47;100.00;101578.81;5054180;28;20124;-77
2024/02/14 10:56:16;;;;;;;8.93;6.35;;;;;;;9.51;100.00;101582.94;5053149;28;20033;-77
2024/02/14 10:58:44;;;;;;;7.10;6.28;;;;;;;9.58;100.00;101584.16;5054254;28;20032;-76
2024/02/14 11:01:09;;;;;;;8.23;6.53;;;;;;;9.59;100.00;101590.34;5053596;28;20099;-77
2024/02/14 11:03:35;;;;;;;8.90;6.22;;;;;;;9.60;100.00;101579.59;5053308;28;20176;-78
2024/02/14 11:06:03;;;;;;;8.93;6.55;;;;;;;9.63;100.00;101583.81;5054459;28;20060;-79
2024/02/14 11:08:31;;;;;;;8.40;6.25;;;;;;;9.64;100.00;101581.06;5054312;28;20524;-79